Have a Safe July 4th! 

Flight Track Log - Related Links

Times and Time Zones

All times are in EDT time to prevent confusion due to time zone crossing. See the N1944E flight status page for this flight to view local times or setup timezone preferences in your user account.

Time Position Orientation Groundspeed Altitude Reporting Facility
EDT Latitude Longitude Course Direction KTS MPH feet Rate Location/Type
Wed 10:12:29 PM 42.9547 -106.5369 281° West 148 170 7,700  Level Denver Center
Wed 10:13:30 PM 42.9597 -106.5936 277° West 156 180 8,400 683 Climbing Denver Center
Wed 10:14:32 PM 42.9514 -106.6619 261° West 158 182 9,100 3,707 Climbing Denver Center
Wed 10:15:00 PM 42.9835 -106.7752 293° West  Level FlightAware Approximate
Wed 10:15:33 PM 42.9600 -106.7206 281° West 161 185 16,000  Level Denver Center
Wed 10:16:00 PM 43.0031 -106.8390 293° West  Level FlightAware Approximate
Wed 10:16:35 PM 42.9828 -106.7706 302° West 159 183 10,400  Level Denver Center
Wed 10:17:00 PM 43.0196 -106.9041 281° West  Level FlightAware Approximate
Wed 10:17:36 PM 43.0053 -106.8344 296° West 160 184 11,300  Level Denver Center
Wed 10:18:38 PM 43.0183 -106.8917 287° West 165 190 11,800 732 Climbing Denver Center
Wed 10:19:39 PM 43.0358 -106.9572 290° West 166 191 12,800 836 Climbing Denver Center
Wed 10:20:40 PM 43.0511 -107.0122 291° West 163 188 13,500 683 Climbing Denver Center
Wed 10:21:42 PM 43.0614 -107.0675 284° West 158 182 14,200 732 Climbing Denver Center
Wed 10:22:43 PM 43.0789 -107.1333 290° West 160 184 15,000 732 Climbing Denver Center
Wed 10:23:45 PM 43.0925 -107.1839 290° West 157 181 15,700 488 Climbing Denver Center
Wed 10:24:46 PM 43.1081 -107.2392 291° West 163 188 16,000 148 Climbing Denver Center
Wed 10:25:47 PM 43.1225 -107.3192 284° West 179 206 16,000  Level Denver Center
Wed 10:27:01 PM 43.1286 -107.3867 277° West 179 206 16,000  Level Denver Center
Wed 10:28:02 PM 43.1308 -107.4697 272° West 181 208 16,000  Level Denver Center
Wed 10:29:04 PM 43.1311 -107.5417 270° West 186 214 16,000 49 Level Denver Center
Wed 10:30:05 PM 43.1311 -107.6153 270° West 192 221 16,100  Climbing Denver Center
Wed 10:31:15 PM 43.1317 -107.7031 271° West 190 219 16,000 -46 Descending Salt Lake Center
Wed 10:32:16 PM 43.1339 -107.7756 272° West 191 220 16,000  Level Salt Lake Center
Wed 10:33:17 PM 43.1375 -107.8444 274° West 183 211 16,000  Level Salt Lake Center
Wed 10:34:18 PM 43.1408 -107.9169 274° West 189 217 16,000  Level Salt Lake Center
Wed 10:35:20 PM 43.1447 -107.9883 274° West 190 219 16,000  Level Salt Lake Center
Wed 10:36:21 PM 43.1472 -108.0569 273° West 184 212 16,000  Level Salt Lake Center
Wed 10:37:22 PM 43.1508 -108.1278 274° West 186 214 16,000  Level Salt Lake Center
Wed 10:38:24 PM 43.1550 -108.2017 274° West 191 220 16,000  Level Salt Lake Center
Wed 10:39:25 PM 43.1600 -108.2903 274° West 193 222 16,000  Level Salt Lake Center
Wed 10:40:26 PM 43.1639 -108.3639 274° West 194 223 16,000  Level Salt Lake Center
Wed 10:41:28 PM 43.1664 -108.4375 273° West 194 223 16,000  Level Salt Lake Center
Wed 10:42:29 PM 43.1697 -108.5119 274° West 195 224 16,000  Level Salt Lake Center
Wed 10:43:30 PM 43.1714 -108.5842 272° West 193 222 16,000  Level Salt Lake Center
Wed 10:44:32 PM 43.1742 -108.6561 273° West 192 221 16,000  Level Salt Lake Center
Wed 10:45:33 PM 43.1772 -108.7286 273° West 190 219 16,000  Level Salt Lake Center
Wed 10:46:34 PM 43.1797 -108.7997 273° West 189 217 16,000  Level Salt Lake Center
Wed 10:47:36 PM 43.1819 -108.8706 272° West 187 215 16,000  Level Salt Lake Center
Wed 10:48:37 PM 43.1850 -108.9578 273° West 189 217 16,000  Level Salt Lake Center
Wed 10:49:38 PM 43.1892 -109.0294 275° West 190 219 16,000  Level Salt Lake Center
Wed 10:50:40 PM 43.1928 -109.0997 274° West 187 215 16,000  Level Salt Lake Center
Wed 10:51:41 PM 43.1950 -109.1686 273° West 184 212 16,000  Level Salt Lake Center
Wed 10:52:43 PM 43.1969 -109.2378 272° West 183 211 16,000  Level Salt Lake Center
Wed 10:53:44 PM 43.1989 -109.3119 272° West 191 220 16,000  Level Salt Lake Center
Wed 10:54:45 PM 43.1875 -109.3797 257° West 187 215 16,000  Level Salt Lake Center
Wed 10:55:47 PM 43.1717 -109.4447 252° West 180 207 16,000  Level Salt Lake Center
Wed 10:56:48 PM 43.1542 -109.5108 250° West 184 212 16,000 49 Level Salt Lake Center
Wed 10:57:49 PM 43.1300 -109.5892 247° West 186 214 16,100  Climbing Salt Lake Center
Wed 10:58:51 PM 43.1081 -109.6569 246° West 195 224 16,000 -49 Descending Salt Lake Center
Wed 10:59:52 PM 43.1064 -109.7228 268° West 188 216 16,000  Level Salt Lake Center
Wed 11:00:53 PM 43.1247 -109.7889 291° West 187 215 16,000  Level Salt Lake Center
Wed 11:01:55 PM 43.1381 -109.8564 285° West 184 212 16,000  Level Salt Lake Center
Wed 11:02:56 PM 43.1467 -109.9233 280° West 184 212 16,000  Level Salt Lake Center
Wed 11:03:57 PM 43.1536 -110.0008 277° West 184 212 16,000  Level Salt Lake Center
Wed 11:04:59 PM 43.1581 -110.0689 275° West 184 212 16,000  Level Salt Lake Center
Wed 11:06:00 PM 43.1625 -110.1456 275° West 182 209 16,000  Level Salt Lake Center
Wed 11:07:01 PM 43.1664 -110.2083 275° West 178 205 16,000 49 Level Salt Lake Center
Wed 11:08:03 PM 43.1731 -110.2736 278° West 178 205 16,100 -341 Climbing Salt Lake Center
Wed 11:09:04 PM 43.1811 -110.3519 278° West 183 211 15,300 -787 Descending Salt Lake Center
Wed 11:10:05 PM 43.1875 -110.4261 277° West 192 221 14,500 -689 Descending Salt Lake Center
Wed 11:11:06 PM 43.1953 -110.5169 277° West 206 237 13,900 -390 Descending Salt Lake Center
Wed 11:12:08 PM 43.2014 -110.5861 277° West 199 229 13,700 -439 Descending Salt Lake Center
Wed 11:13:09 PM 43.2111 -110.6628 280° West 195 224 13,000 -344 Descending Salt Lake Center
Wed 11:14:10 PM 43.2181 -110.7278 278° West 180 207 13,000 -244 Level Salt Lake Center
Wed 11:15:12 PM 43.2256 -110.7878 280° West 162 186 12,500 -537 Descending Salt Lake Center
Wed 11:16:13 PM 43.2308 -110.8600 276° West 185 213 11,900 -295 Descending Salt Lake Center
Wed 11:17:14 PM 43.2528 -110.9139 299° West 176 203 11,900 49 Level Salt Lake Center
Wed 11:18:16 PM 43.2672 -110.8700 66° East 170 196 12,000  Climbing Salt Lake Center
Wed 11:19:17 PM 43.2306 -110.8781 189° South 143 165 11,900 -148 Descending Salt Lake Center
Wed 11:20:18 PM 43.1911 -110.9017 204° Southwest 152 175 11,700 -98 Descending Salt Lake Center
Wed 11:21:19 PM 43.2036 -110.9367 296° West 165 190 11,700 -98 Level Salt Lake Center
Wed 11:22:21 PM 43.2511 -110.9086 23° Northeast 155 178 11,500 -341 Descending Salt Lake Center
Wed 11:23:22 PM 43.2964 -110.8744 29° Northeast 177 204 11,000 -492 Descending Salt Lake Center
Wed 11:24:23 PM 43.3461 -110.8531 17° North 184 212 10,500 -344 Descending Salt Lake Center
Wed 11:25:24 PM 43.3919 -110.8303 20° North 181 208 10,300 -639 Descending Salt Lake Center
Wed 11:26:25 PM 43.4314 -110.8133 17° North 166 191 9,200 -927 Descending Salt Lake Center
Wed 11:27:27 PM 43.4697 -110.8097 North 149 171 8,400 -585 Descending Salt Lake Center
Wed 11:28:28 PM 43.4958 -110.7953 22° Northeast 121 139 8,000 -344 Descending Salt Lake Center
Wed 11:29:29 PM 43.5225 -110.7806 22° Northeast 109 125 7,700 -295 Descending Salt Lake Center
Wed 11:30:30 PM 43.5483 -110.7664 22° Northeast 104 120 7,400 -390 Descending Salt Lake Center
Wed 11:31:32 PM 43.5739 -110.7539 20° North 101 116 6,900 -390 Descending Salt Lake Center
Wed 11:32:33 PM 43.5967 -110.7428 19° North 94 108 6,600 -295 Descending Salt Lake Center

Login

Don't have an account? Register now (free) for customized features, flight alerts, and more!